Data for 01/10/2011

Time Sea-Level Adjusted Pressure Absolute Pressure Temperature Relative Humidity Dew Point   
(mb) (inHg) (mb) (inHg) (C) (F) (%) (C) (F)
00:05 1020 30.12 849 25.07 -16.6 2 79 -19.5 -3
00:10 1020 30.12 849 25.07 -16.6 2.1 79 -19.4 -2.9
00:15 1020 30.12 849 25.07 -16.6 2.1 78 -19.6 -3.2
00:20 1020 30.12 849 25.07 -16.8 1.8 79 -19.6 -3.2
00:25 1020 30.12 849 25.07 -16.8 1.7 81 -19.4 -2.9
00:30 1020 30.12 849 25.07 -16.6 2.1 79 -19.5 -3
00:35 1020 30.12 849 25.07 -16.8 1.8 80 -19.4 -2.9
00:40 1020 30.12 849 25.07 -16.9 1.5 81 -19.5 -3
00:45 1020 30.12 849 25.07 -17 1.3 81 -19.5 -3.1
00:50 1020 30.12 849 25.07 -17.1 1.3 82 -19.4 -2.9
00:55 1020 30.12 849 25.07 -17 1.3 82 -19.4 -2.9
01:00 1020 30.12 849 25.07 -17 1.3 84 -19.1 -2.4
01:05 1020 30.12 849 25.07 -16.6 2 81 -19.2 -2.5
01:10 1020 30.12 849 25.07 -16.6 2.2 81 -19.2 -2.5
01:15 1020 30.12 849 25.07 -16.5 2.2 81 -19 -2.3
01:20 1020 30.12 849 25.07 -16.5 2.2 81 -19 -2.3
01:25 1020 30.12 849 25.07 -16.6 2.2 81 -19.1 -2.4
01:30 1020 30.12 849 25.07 -16.7 2 79 -19.4 -3
01:35 1020 30.12 850 25.1 -16.9 1.7 80 -19.6 -3.2
01:40 1020 30.12 850 25.1 -17 1.3 79 -19.9 -3.8
01:45 1020 30.12 850 25.1 -17.2 1.1 79 -20.1 -4.1
01:50 1020 30.12 850 25.1 -17.3 0.9 78 -20.3 -4.5
01:55 1021 30.15 850 25.1 -17.3 0.9 77 -20.5 -4.8
02:00 1021 30.15 850 25.1 -17.4 0.7 77 -20.6 -5
02:05 1021 30.15 850 25.1 -17.5 0.6 77 -20.6 -5.1
02:10 1021 30.15 850 25.1 -17.5 0.5 78 -20.5 -4.8
02:15 1021 30.15 850 25.1 -17.5 0.6 77 -20.5 -5
02:20 1021 30.15 850 25.1 -17.4 0.6 79 -20.3 -4.5
02:25 1021 30.15 850 25.1 -17.5 0.6 78 -20.4 -4.7
02:30 1021 30.15 850 25.1 -17.7 0.1 79 -20.6 -5
02:35 1021 30.15 850 25.1 -17.8 -0.1 79 -20.7 -5.3
02:40 1021 30.15 850 25.1 -17.9 -0.1 79 -20.7 -5.2
02:45 1021 30.15 850 25.1 -17.8 -0.1 80 -20.5 -4.9
02:50 1021 30.15 850 25.1 -17.7 0.2 79 -20.5 -4.9
02:55 1021 30.15 851 25.13 -17.7 0.2 78 -20.6 -5.1
03:00 1021 30.15 851 25.13 -17.6 0.4 78 -20.5 -4.9
03:05 1021 30.15 851 25.13 -17.6 0.4 78 -20.6 -5.1
03:10 1021 30.15 851 25.13 -17.8 0 78 -20.7 -5.3
03:15 1021 30.15 851 25.13 -17.7 0.1 78 -20.7 -5.3
03:20 1021 30.15 851 25.13 -17.8 0.1 77 -20.8 -5.4
03:25 1022 30.18 851 25.13 -17.8 0.1 77 -20.9 -5.6
03:30 1022 30.18 851 25.13 -17.7 0.1 76 -20.9 -5.7
03:35 1022 30.18 851 25.13 -17.8 -0.1 77 -20.9 -5.7
03:40 1022 30.18 851 25.13 -18 -0.3 78 -20.9 -5.7
03:45 1022 30.18 851 25.13 -17.9 -0.1 78 -20.8 -5.5
03:50 1022 30.18 851 25.13 -18 -0.3 77 -21 -5.8
03:55 1022 30.18 851 25.13 -18 -0.4 76 -21.2 -6.2
04:00 1022 30.18 851 25.13 -18 -0.4 76 -21.2 -6.2
04:05 1022 30.18 851 25.13 -17.9 -0.2 76 -21.1 -6
04:10 1022 30.18 851 25.13 -17.9 -0.2 77 -21.1 -5.9
04:15 1022 30.18 851 25.13 -18 -0.3 78 -21 -5.8
04:20 1022 30.18 851 25.13 -17.9 -0.2 78 -20.9 -5.7
04:25 1022 30.18 851 25.13 -17.9 -0.2 78 -20.9 -5.6
04:30 1022 30.18 851 25.13 -18.1 -0.6 78 -21 -5.9
04:35 1022 30.18 851 25.13 -18.1 -0.6 79 -21 -5.8
04:40 1022 30.18 851 25.13 -18 -0.3 79 -20.8 -5.5
04:45 1022 30.18 851 25.13 -17.9 -0.2 78 -20.9 -5.6
04:50 1022 30.18 851 25.13 -17.9 -0.2 78 -20.9 -5.7
04:55 1022 30.18 851 25.13 -18 -0.3 78 -21 -5.7
05:00 1022 30.18 851 25.13 -18.1 -0.6 79 -21 -5.8
05:05 1022 30.18 851 25.13 -18 -0.5 79 -20.9 -5.6
05:10 1022 30.18 851 25.13 -18 -0.4 80 -20.7 -5.2
05:15 1022 30.18 851 25.13 -17.9 -0.2 79 -20.7 -5.2
05:20 1022 30.18 851 25.13 -17.9 -0.3 79 -20.8 -5.4
05:25 1022 30.18 851 25.13 -18 -0.3 79 -20.8 -5.5
05:30 1022 30.18 851 25.13 -17.9 -0.2 79 -20.7 -5.3
05:35 1022 30.18 851 25.13 -17.8 -0.1 80 -20.6 -5
05:40 1022 30.18 851 25.13 -17.8 -0 79 -20.6 -5
05:45 1022 30.18 851 25.13 -17.9 -0.2 80 -20.6 -5
05:50 1022 30.18 851 25.13 -17.8 0 80 -20.5 -4.8
05:55 1022 30.18 851 25.13 -17.9 -0.1 80 -20.6 -5
06:00 1022 30.18 851 25.13 -18.1 -0.5 81 -20.6 -5.1
06:05 1022 30.18 851 25.13 -18.1 -0.5 81 -20.6 -5.1
06:10 1022 30.18 851 25.13 -18 -0.4 81 -20.6 -5
06:15 1022 30.18 851 25.13 -18 -0.3 80 -20.6 -5.1
06:20 1022 30.18 851 25.13 -17.9 -0.1 79 -20.6 -5.1
06:25 1022 30.18 851 25.13 -17.9 -0.3 79 -20.7 -5.2
06:30 1022 30.18 852 25.16 -17.9 -0.3 80 -20.6 -5.2
06:35 1022 30.18 852 25.16 -18 -0.4 79 -20.8 -5.4
06:40 1022 30.18 852 25.16 -18 -0.4 80 -20.7 -5.3
06:45 1022 30.18 852 25.16 -18 -0.3 80 -20.7 -5.2
06:50 1023 30.21 852 25.16 -18 -0.3 79 -20.7 -5.3
06:55 1023 30.21 852 25.16 -18 -0.4 79 -20.8 -5.5
07:00 1023 30.21 852 25.16 -18 -0.4 79 -20.8 -5.4
07:05 1023 30.21 852 25.16 -18.1 -0.6 79 -20.9 -5.6
07:10 1023 30.21 852 25.16 -18.1 -0.6 80 -20.8 -5.4
07:15 1023 30.21 852 25.16 -18.1 -0.6 79 -20.9 -5.7
07:20 1023 30.21 852 25.16 -18.1 -0.6 80 -20.8 -5.4
07:25 1023 30.21 852 25.16 -18.1 -0.6 80 -20.8 -5.4
07:30 1023 30.21 852 25.16 -18.1 -0.7 81 -20.6 -5.1
07:35 1023 30.21 852 25.16 -18 -0.5 80 -20.7 -5.3
07:40 1023 30.21 852 25.16 -18 -0.4 81 -20.6 -5.1
07:45 1023 30.21 852 25.16 -18 -0.3 79 -20.7 -5.3
07:50 1023 30.21 852 25.16 -18.1 -0.6 80 -20.8 -5.5
07:55 1023 30.21 852 25.16 -18.1 -0.7 81 -20.7 -5.3
08:00 1023 30.21 852 25.16 -18.2 -0.7 80 -20.8 -5.4
08:05 1023 30.21 852 25.16 -18.2 -0.8 81 -20.7 -5.3
08:10 1023 30.21 852 25.16 -18.3 -0.9 80 -20.9 -5.6
08:15 1023 30.21 852 25.16 -18.4 -1.1 81 -20.9 -5.7
08:20 1023 30.21 852 25.16 -18.3 -0.9 81 -20.8 -5.5
08:25 1023 30.21 852 25.16 -18.2 -0.8 80 -20.9 -5.6
08:30 1023 30.21 853 25.19 -18.2 -0.8 80 -20.8 -5.5
08:35 1023 30.21 853 25.19 -18.2 -0.8 81 -20.7 -5.2
08:40 1023 30.21 853 25.19 -18.1 -0.6 80 -20.7 -5.3
08:45 1023 30.21 853 25.19 -18.1 -0.6 80 -20.8 -5.4
08:50 1023 30.21 853 25.19 -18.1 -0.5 80 -20.8 -5.4
08:55 1023 30.21 853 25.19 -18 -0.4 79 -20.8 -5.4
09:00 1024 30.24 853 25.19 -17.8 -0 78 -20.7 -5.3
09:05 1024 30.24 853 25.19 -17.7 0.2 78 -20.7 -5.3
09:10 1024 30.24 853 25.19 -17.5 0.5 77 -20.7 -5.2
09:15 1024 30.24 853 25.19 -17.4 0.6 77 -20.6 -5.1
09:20 1024 30.24 853 25.19 -17.3 0.8 77 -20.5 -4.9
09:25 1024 30.24 853 25.19 -17.4 0.8 76 -20.6 -5.1
09:30 1024 30.24 853 25.19 -17.4 0.7 77 -20.5 -4.9
09:35 1024 30.24 853 25.19 -17.4 0.6 77 -20.6 -5
09:40 1024 30.24 853 25.19 -17.3 0.9 76 -20.5 -4.9
09:45 1024 30.24 853 25.19 -17.3 0.9 76 -20.6 -5.1
09:50 1024 30.24 853 25.19 -17.3 0.8 75 -20.7 -5.3
09:55 1024 30.24 853 25.19 -17.3 0.9 75 -20.7 -5.2
10:00 1024 30.24 853 25.19 -17.3 0.8 76 -20.6 -5.1
10:05 1024 30.24 853 25.19 -17 1.4 73 -20.7 -5.3
10:10 1024 30.24 853 25.19 -16.7 1.9 72 -20.6 -5.1
10:15 1024 30.24 853 25.19 -16.7 1.9 72 -20.7 -5.2
10:20 1024 30.24 853 25.19 -16.8 1.7 73 -20.5 -5
10:25 1024 30.24 853 25.19 -16.7 2 72 -20.6 -5.2
10:30 1024 30.24 853 25.19 -16.5 2.4 70 -20.8 -5.4
10:35 1024 30.24 853 25.19 -16.5 2.3 72 -20.4 -4.8
10:40 1024 30.24 853 25.19 -16.4 2.5 70 -20.6 -5
10:45 1024 30.24 853 25.19 -16.3 2.6 68 -20.9 -5.6
10:50 1024 30.24 853 25.19 -16.3 2.7 70 -20.5 -5
10:55 1024 30.24 853 25.19 -15.9 3.3 68 -20.6 -5.1
11:00 1024 30.24 853 25.19 -16 3.1 68 -20.6 -5.2
11:05 1024 30.24 853 25.19 -16.1 3.1 68 -20.6 -5.1
11:10 1024 30.24 853 25.19 -16 3.1 68 -20.7 -5.3
11:15 1024 30.24 853 25.19 -16.3 2.8 69 -20.7 -5.2
11:20 1024 30.24 853 25.19 -16.2 2.9 68 -20.8 -5.5
11:25 1024 30.24 853 25.19 -15.8 3.5 66 -20.8 -5.4
11:30 1024 30.24 853 25.19 -15.5 4.2 66 -20.5 -4.8
11:35 1024 30.24 853 25.19 -15.4 4.3 67 -20.2 -4.3
11:40 1024 30.24 853 25.19 -15.3 4.6 65 -20.4 -4.7
11:45 1024 30.24 853 25.19 -15.5 4 68 -20.2 -4.4
11:50 1024 30.24 853 25.19 -15.2 4.6 65 -20.3 -4.6
11:55 1024 30.24 853 25.19 -15.3 4.5 66 -20.2 -4.4
12:00 1024 30.24 853 25.19 -15.5 4.1 69 -20 -4
12:05 1024 30.24 853 25.19 -15.3 4.5 68 -20 -4
12:10 1024 30.24 853 25.19 -15.2 4.6 69 -19.7 -3.5
12:15 1024 30.24 853 25.19 -14.6 5.7 65 -19.8 -3.6
12:20 1024 30.24 853 25.19 -14.7 5.5 64 -20 -4.1
12:25 1024 30.24 853 25.19 -15 5 66 -20.1 -4.1
12:30 1024 30.24 853 25.19 -15.4 4.3 67 -20.2 -4.4
12:35 1024 30.24 853 25.19 -14.9 5.2 63 -20.4 -4.7
12:40 1024 30.24 853 25.19 -14.8 5.4 62 -20.5 -4.8
12:45 1024 30.24 853 25.19 -14.7 5.5 63 -20.3 -4.5
12:50 1024 30.24 853 25.19 -14.4 6 62 -20.2 -4.4
12:55 1024 30.24 853 25.19 -14.1 6.7 60 -20.3 -4.5
13:00 1024 30.24 853 25.19 -13.8 7.2 59 -20.1 -4.2
13:05 1024 30.24 853 25.19 -13.8 7.1 57 -20.6 -5
13:10 1024 30.24 853 25.19 -14.2 6.5 58 -20.8 -5.5
13:15 1024 30.24 853 25.19 -14.2 6.4 56 -21.2 -6.2
13:20 1024 30.24 853 25.19 -14.3 6.2 58 -20.9 -5.5
13:25 1024 30.24 853 25.19 -14.4 6 59 -20.8 -5.5
13:30 1024 30.24 853 25.19 -14.3 6.2 59 -20.7 -5.2
13:35 1024 30.24 853 25.19 -14 6.8 56 -21 -5.9
13:40 1024 30.24 853 25.19 -14.1 6.7 56 -21.1 -6
13:45 1024 30.24 853 25.19 -14.3 6.2 55 -21.5 -6.8
13:50 1024 30.24 853 25.19 -14.3 6.3 58 -20.8 -5.4
13:55 1024 30.24 853 25.19 -14.6 5.7 55 -21.8 -7.2
14:00 1024 30.24 853 25.19 -15.2 4.7 59 -21.5 -6.6
14:05 1024 30.24 853 25.19 -15.2 4.6 57 -21.9 -7.4
14:10 1024 30.24 853 25.19 -15.5 4 57 -22.3 -8.1
14:15 1024 30.24 853 25.19 -14.8 5.4 56 -21.8 -7.2
14:20 1024 30.24 853 25.19 -14.3 6.3 52 -22 -7.7
14:25 1024 30.24 853 25.19 -14.3 6.4 52 -22 -7.7
14:30 1024 30.24 853 25.19 -14.4 6.2 53 -22 -7.7
14:35 1024 30.24 853 25.19 -14.2 6.5 52 -22.1 -7.7
14:40 1024 30.24 853 25.19 -14.7 5.6 53 -22.3 -8.1
14:45 1024 30.24 853 25.19 -14.3 6.4 51 -22.3 -8.1
14:50 1024 30.24 853 25.19 -13.9 7 51 -22 -7.7
14:55 1024 30.24 853 25.19 -14 6.9 51 -21.9 -7.5
15:00 1024 30.24 854 25.22 -13.8 7.2 52 -21.6 -6.8
15:05 1024 30.24 854 25.22 -13.8 7.2 50 -22.1 -7.7
15:10 1024 30.24 854 25.22 -13.9 6.9 51 -22.1 -7.8
15:15 1024 30.24 854 25.22 -14.1 6.6 52 -21.9 -7.5
15:20 1025 30.27 854 25.22 -14.2 6.4 52 -22.1 -7.7
15:25 1025 30.27 854 25.22 -14.7 5.6 56 -21.6 -6.8
15:30 1025 30.27 854 25.22 -15.1 4.8 56 -22 -7.6
15:35 1025 30.27 854 25.22 -15.3 4.4 57 -22.1 -7.7
15:40 1025 30.27 854 25.22 -15.8 3.5 60 -21.9 -7.4
15:45 1025 30.27 854 25.22 -16.5 2.4 62 -22.1 -7.8
15:50 1025 30.27 854 25.22 -16.4 2.4 62 -22.2 -8
15:55 1025 30.27 854 25.22 -16.2 2.8 62 -22 -7.5
16:00 1025 30.27 854 25.22 -16.4 2.4 64 -21.8 -7.3
16:05 1025 30.27 854 25.22 -16.8 1.8 63 -22.2 -8
16:10 1025 30.27 854 25.22 -17.2 1.1 65 -22.3 -8.2
16:15 1025 30.27 854 25.22 -17.4 0.7 65 -22.5 -8.4
16:20 1025 30.27 854 25.22 -17.5 0.6 65 -22.5 -8.5
16:25 1025 30.27 854 25.22 -17.1 1.3 64 -22.4 -8.2
16:30 1025 30.27 854 25.22 -16.9 1.6 62 -22.6 -8.7
16:35 1025 30.27 854 25.22 -17 1.3 62 -22.6 -8.7
16:40 1025 30.27 854 25.22 -17.4 0.7 63 -22.8 -9
16:45 1025 30.27 854 25.22 -17.6 0.3 66 -22.6 -8.7
16:50 1025 30.27 854 25.22 -17.8 -0.1 66 -22.7 -8.8
16:55 1025 30.27 854 25.22 -17.7 0.2 68 -22.3 -8.1
17:00 1025 30.27 854 25.22 -17.3 0.8 68 -22 -7.6
17:05 1025 30.27 854 25.22 -17.3 0.9 67 -22 -7.6
17:10 1025 30.27 854 25.22 -17.6 0.4 66 -22.4 -8.4
17:15 1025 30.27 854 25.22 -18 -0.3 68 -22.6 -8.6
17:20 1025 30.27 854 25.22 -18.1 -0.6 68 -22.7 -8.9
17:25 1025 30.27 854 25.22 -18 -0.4 69 -22.5 -8.4
17:30 1025 30.27 854 25.22 -18.3 -0.9 70 -22.5 -8.5
17:35 1025 30.27 854 25.22 -18.4 -1.2 70 -22.7 -8.8
17:40 1025 30.27 854 25.22 -18.4 -1 69 -22.7 -8.9
17:45 1025 30.27 854 25.22 -18.3 -1 69 -22.7 -8.9
17:50 1025 30.27 854 25.22 -18.4 -1.1 68 -22.8 -9.1
17:55 1025 30.27 854 25.22 -18.4 -1.2 68 -23 -9.4
18:00 1025 30.27 854 25.22 -18.5 -1.3 67 -23.2 -9.8
18:05 1025 30.27 854 25.22 -18.3 -1 67 -23 -9.5
18:10 1025 30.27 854 25.22 -18.6 -1.4 70 -22.7 -8.9
18:15 1025 30.27 854 25.22 -18.5 -1.3 70 -22.7 -8.8
18:20 1025 30.27 854 25.22 -19 -2.1 72 -22.8 -9
18:25 1025 30.27 854 25.22 -19.4 -2.9 74 -23 -9.4
18:30 1025 30.27 854 25.22 -19.7 -3.5 75 -23.1 -9.5
18:35 1025 30.27 854 25.22 -19.9 -3.9 75 -23.3 -10
18:40 1025 30.27 854 25.22 -20.3 -4.5 76 -23.5 -10.4
18:45 1025 30.27 854 25.22 -20.2 -4.4 75 -23.5 -10.3
18:50 1025 30.27 854 25.22 -20.3 -4.5 74 -23.8 -10.8
18:55 1025 30.27 854 25.22 -20.3 -4.6 74 -23.9 -11
19:00 1025 30.27 854 25.22 -20.3 -4.5 73 -23.9 -11
19:05 1025 30.27 854 25.22 -20.1 -4.2 75 -23.5 -10.3
19:10 1025 30.27 854 25.22 -20.1 -4.2 74 -23.7 -10.6
19:15 1025 30.27 854 25.22 -20.2 -4.4 73 -23.9 -11
19:20 1025 30.27 854 25.22 -20.4 -4.6 73 -23.9 -11.1
19:25 1025 30.27 854 25.22 -20.5 -4.8 74 -24 -11.2
19:30 1025 30.27 854 25.22 -20.4 -4.7 73 -24.1 -11.3
19:35 1025 30.27 854 25.22 -20.6 -5 73 -24.2 -11.6
19:40 1025 30.27 854 25.22 -21.1 -6.1 74 -24.6 -12.2
19:45 1025 30.27 854 25.22 -21.3 -6.4 75 -24.7 -12.4
19:50 1025 30.27 854 25.22 -21.4 -6.5 75 -24.6 -12.3
19:55 1025 30.27 854 25.22 -21.4 -6.5 76 -24.6 -12.2
20:00 1025 30.27 854 25.22 -21.1 -6 75 -24.4 -12
20:05 1025 30.27 854 25.22 -21.1 -6 75 -24.5 -12
20:10 1025 30.27 854 25.22 -21.3 -6.3 74 -24.7 -12.5
20:15 1025 30.27 854 25.22 -21.3 -6.4 74 -24.8 -12.6
20:20 1025 30.27 854 25.22 -21.3 -6.3 74 -24.8 -12.6
20:25 1025 30.27 854 25.22 -21.2 -6.1 73 -24.8 -12.6
20:30 1025 30.27 854 25.22 -21.1 -6 73 -24.7 -12.5
20:35 1025 30.27 854 25.22 -21.1 -6 74 -24.7 -12.4
20:40 1025 30.27 855 25.25 -21.2 -6.2 73 -24.8 -12.7
20:45 1025 30.27 855 25.25 -21.3 -6.3 74 -24.7 -12.5
20:50 1025 30.27 855 25.25 -21.2 -6.2 74 -24.7 -12.5
20:55 1025 30.27 855 25.25 -21.1 -6 73 -24.7 -12.5
21:00 1025 30.27 855 25.25 -21 -5.7 73 -24.6 -12.3
21:05 1025 30.27 855 25.25 -20.8 -5.5 73 -24.5 -12.1
21:10 1025 30.27 855 25.25 -20.5 -4.9 71 -24.4 -11.9
21:15 1025 30.27 855 25.25 -20.3 -4.5 72 -24 -11.3
21:20 1026 30.3 855 25.25 -20.2 -4.3 72 -24 -11.2
21:25 1026 30.3 855 25.25 -20.4 -4.6 75 -23.8 -10.8
21:30 1025 30.27 855 25.25 -20.4 -4.8 74 -24 -11.2
21:35 1025 30.27 855 25.25 -20.7 -5.3 74 -24.2 -11.6
21:40 1025 30.27 855 25.25 -20.9 -5.6 74 -24.4 -11.8
21:45 1025 30.27 855 25.25 -21 -5.7 73 -24.6 -12.3
21:50 1025 30.27 855 25.25 -20.9 -5.6 73 -24.5 -12.2
21:55 1025 30.27 855 25.25 -20.8 -5.5 73 -24.5 -12.1
22:00 1025 30.27 855 25.25 -20.6 -5.1 73 -24.3 -11.7
22:05 1026 30.3 855 25.25 -20.5 -5 73 -24.2 -11.5
22:10 1025 30.27 855 25.25 -20.5 -4.9 74 -24 -11.2
22:15 1025 30.27 855 25.25 -20.5 -4.8 74 -23.9 -11.1
22:20 1025 30.27 855 25.25 -20.5 -4.9 74 -24 -11.2
22:25 1025 30.27 855 25.25 -20.5 -4.8 74 -24 -11.2
22:30 1025 30.27 855 25.25 -20.5 -4.9 74 -24 -11.3
22:35 1025 30.27 855 25.25 -20.5 -5 74 -24 -11.2
22:40 1025 30.27 855 25.25 -20.6 -5.1 73 -24.2 -11.5
22:45 1025 30.27 855 25.25 -20.6 -5.2 73 -24.3 -11.7
22:50 1025 30.27 855 25.25 -20.6 -5.1 73 -24.3 -11.7
22:55 1025 30.27 855 25.25 -20.6 -5.1 73 -24.3 -11.7
23:00 1025 30.27 855 25.25 -20.6 -5 73 -24.3 -11.7
23:05 1025 30.27 855 25.25 -20.5 -4.8 72 -24.2 -11.6
23:10 1025 30.27 855 25.25 -20.6 -5 73 -24.2 -11.6
23:15 1025 30.27 855 25.25 -20.7 -5.3 73 -24.4 -11.8
23:20 1025 30.27 855 25.25 -20.8 -5.4 73 -24.4 -11.9
23:25 1025 30.27 855 25.25 -20.9 -5.5 73 -24.4 -12
23:30 1025 30.27 855 25.25 -21 -5.7 74 -24.5 -12.1
23:35 1025 30.27 855 25.25 -20.9 -5.7 74 -24.4 -12
23:40 1025 30.27 855 25.25 -20.8 -5.4 73 -24.4 -12
23:45 1025 30.27 855 25.25 -20.6 -5 72 -24.4 -11.9
23:50 1025 30.27 855 25.25 -20.5 -4.9 72 -24.4 -11.8
23:55 1025 30.27 855 25.25 -20.5 -4.9 73 -24.2 -11.6
24:00 1025 30.27 855 25.25 -20.4 -4.7 73 -24.1 -11.3